Terminal Aerodrome Forecast
Issued by NWS

Home | Current Version | Previous Version | Text Only | Print | Product List | Glossary Off
Versions: 1 2 3 4 5 6 7 8 9 10 11 12 13 14 15 16 17

000
FTUS43 KBIS 201100
TAFJMS
TAF
KJMS 201120Z 2012/2112 27007KT P6SM SCT090
     FM201500 26010KT P6SM -SHRA SCT050 BKN070
     FM202100 32022G31KT P6SM SCT070
     FM210100 31012KT P6SM SKC=

USA.gov is the U.S. government's official web portal to all federal, state and local government web resources and services.